createdAt,value
2022-11-21T00:00:33.768Z,96444.28
2022-11-21T00:04:36.654Z,96445.56
2022-11-21T00:08:39.419Z,96450.31
2022-11-21T00:12:42.109Z,96462.25
2022-11-21T00:16:46.766Z,96455.06
2022-11-21T00:20:49.401Z,96445.41
2022-11-21T00:24:54.297Z,96433.88
2022-11-21T00:28:57.104Z,96451.56
2022-11-21T00:33:01.297Z,96432.03
2022-11-21T00:37:04.030Z,96428.31
2022-11-21T00:41:07.202Z,96439.88
2022-11-21T00:45:10.702Z,96442.53
2022-11-21T00:49:14.865Z,96444.19
2022-11-21T00:53:17.600Z,96451.63
2022-11-21T00:57:20.314Z,96447.47
2022-11-21T01:01:23.038Z,96465.19
2022-11-21T01:05:27.101Z,96456.38
2022-11-21T01:09:30.025Z,96453.69
2022-11-21T01:13:33.135Z,96443.81
2022-11-21T01:17:35.871Z,96447.94
2022-11-21T01:21:39.901Z,96442.59
2022-11-21T01:25:42.553Z,96445.72
2022-11-21T01:29:45.202Z,96442.84
2022-11-21T01:33:48.796Z,96447.56
2022-11-21T01:37:53.012Z,96463.00
2022-11-21T01:41:55.671Z,96453.97
2022-11-21T01:46:00.154Z,96436.09
2022-11-21T01:50:03.411Z,96431.78
2022-11-21T01:54:12.558Z,96443.31
2022-11-21T01:58:15.637Z,96434.31
2022-11-21T02:02:22.535Z,96425.47
2022-11-21T02:06:26.730Z,96424.84
2022-11-21T02:10:30.815Z,96419.88
2022-11-21T02:14:34.680Z,96421.09
2022-11-21T02:18:37.322Z,96413.91
2022-11-21T02:22:49.232Z,96415.75
2022-11-21T02:26:53.231Z,96408.09
2022-11-21T02:30:55.956Z,96407.53
2022-11-21T02:34:58.645Z,96400.53
2022-11-21T02:39:01.882Z,96404.22
2022-11-21T02:43:12.103Z,96407.28
2022-11-21T02:47:14.745Z,96403.81
2022-11-21T02:51:17.432Z,96397.66
2022-11-21T02:55:20.160Z,96388.81
2022-11-21T02:59:24.169Z,96399.31
2022-11-21T03:03:26.881Z,96388.19
2022-11-21T03:07:29.677Z,96384.88
2022-11-21T03:11:32.347Z,96387.78
2022-11-21T03:15:36.967Z,96390.88
2022-11-21T03:19:39.695Z,96385.50
2022-11-21T03:23:42.403Z,96393.91
2022-11-21T03:27:45.083Z,96376.69
2022-11-21T03:31:49.121Z,96374.00
2022-11-21T03:35:51.859Z,96369.84
2022-11-21T03:39:54.572Z,96364.50
2022-11-21T03:43:57.341Z,96366.97
2022-11-21T03:48:01.439Z,96370.84
2022-11-21T03:52:04.248Z,96358.06
2022-11-21T03:56:07.111Z,96357.66
2022-11-21T04:00:11.148Z,96365.03
2022-11-21T04:04:15.150Z,96352.66
2022-11-21T04:08:17.969Z,96353.06
2022-11-21T04:12:20.635Z,96357.19
2022-11-21T04:16:23.341Z,96357.19
2022-11-21T04:20:27.329Z,96346.06
2022-11-21T04:24:30.775Z,96351.84
2022-11-21T04:28:33.668Z,96345.47
2022-11-21T04:32:36.371Z,96353.28
2022-11-21T04:36:40.507Z,96355.16
2022-11-21T04:40:45.265Z,96343.66
2022-11-21T04:44:47.956Z,96340.38
2022-11-21T04:48:50.641Z,96338.75
2022-11-21T04:52:56.080Z,96333.41
2022-11-21T04:56:58.832Z,96330.72
2022-11-21T05:01:06.832Z,96326.38
2022-11-21T05:05:10.539Z,96321.97
2022-11-21T05:09:14.546Z,96337.50
2022-11-21T05:13:23.237Z,96335.81
2022-11-21T05:17:25.945Z,96332.69
2022-11-21T05:21:28.652Z,96325.06
2022-11-21T05:25:32.709Z,96337.41
2022-11-21T05:29:36.003Z,96337.03
2022-11-21T05:33:38.645Z,96350.19
2022-11-21T05:37:41.343Z,96355.34
2022-11-21T05:41:45.465Z,96356.16
2022-11-21T05:45:50.109Z,96355.78
2022-11-21T05:49:52.779Z,96360.69
2022-11-21T05:53:55.488Z,96357.19
2022-11-21T05:58:01.094Z,96352.44
2022-11-21T06:02:21.318Z,96353.47
2022-11-21T06:06:25.069Z,96346.84
2022-11-21T06:10:27.812Z,96345.13
2022-11-21T06:14:31.844Z,96346.34
2022-11-21T06:18:36.442Z,96337.25
2022-11-21T06:22:39.445Z,96337.88
2022-11-21T06:26:42.210Z,96336.00
2022-11-21T06:30:46.293Z,96336.84
2022-11-21T06:34:49.125Z,96331.69
2022-11-21T06:38:54.112Z,96331.50
2022-11-21T06:42:57.887Z,96333.75
2022-11-21T06:47:01.973Z,96333.56
2022-11-21T06:51:06.479Z,96338.94
2022-11-21T06:55:10.544Z,96341.88
2022-11-21T06:59:13.249Z,96355.22
2022-11-21T07:03:17.392Z,96356.84
2022-11-21T07:07:20.198Z,96354.16
2022-11-21T07:11:24.883Z,96360.31
2022-11-21T07:15:28.143Z,96369.41
2022-11-21T07:19:32.203Z,96368.16
2022-11-21T07:23:35.605Z,96372.25
2022-11-21T07:27:38.296Z,96375.56
2022-11-21T07:31:41.082Z,96387.91
2022-11-21T07:35:45.620Z,96385.06
2022-11-21T07:39:48.361Z,96383.47
2022-11-21T07:43:51.069Z,96375.84
2022-11-21T07:47:59.446Z,96388.00
2022-11-21T07:52:04.058Z,96393.97
2022-11-21T07:56:09.464Z,96388.75
2022-11-21T08:00:14.041Z,96406.72
2022-11-21T08:04:17.069Z,96391.69
2022-11-21T08:08:21.091Z,96396.03
2022-11-21T08:12:24.048Z,96390.81
2022-11-21T08:16:28.079Z,96394.69
2022-11-21T08:20:30.838Z,96389.34
2022-11-21T08:24:34.942Z,96401.09
2022-11-21T08:28:37.860Z,96384.59
2022-11-21T08:32:40.589Z,96388.91
2022-11-21T08:36:43.299Z,96383.78
2022-11-21T08:40:47.421Z,96380.13
2022-11-21T08:44:50.197Z,96398.03
2022-11-21T08:48:52.876Z,96400.13
2022-11-21T08:53:00.591Z,96394.53
2022-11-21T08:57:04.952Z,96402.81
2022-11-21T09:01:07.675Z,96386.75
2022-11-21T09:05:11.192Z,96394.34
2022-11-21T09:09:14.624Z,96394.78
2022-11-21T09:13:18.779Z,96410.22
2022-11-21T09:17:39.110Z,96417.44
2022-11-21T09:21:41.985Z,96401.19
2022-11-21T09:25:46.888Z,96402.47
2022-11-21T09:29:54.015Z,96410.69
2022-11-21T09:33:57.636Z,96422.41
2022-11-21T09:38:00.518Z,96423.88
2022-11-21T09:42:33.929Z,96417.72
2022-11-21T09:46:46.046Z,96416.72
2022-11-21T09:50:54.084Z,96409.44
2022-11-21T09:55:01.344Z,96403.81
2022-11-21T09:59:18.126Z,96402.38
2022-11-21T10:03:25.994Z,96403.66
2022-11-21T10:07:31.740Z,96393.34
2022-11-21T10:11:58.415Z,96397.91
2022-11-21T10:16:07.965Z,96400.44
2022-11-21T10:20:27.715Z,96388.47
2022-11-21T10:24:47.533Z,96397.13
2022-11-21T10:28:58.179Z,96390.94
2022-11-21T10:33:04.645Z,96395.47
2022-11-21T10:37:16.450Z,96383.91
2022-11-21T10:41:25.138Z,96383.84
2022-11-21T10:45:27.878Z,96376.41
2022-11-21T10:49:34.572Z,96363.66
2022-11-21T10:53:56.208Z,96366.69
2022-11-21T10:57:58.887Z,96355.81
2022-11-21T11:02:03.268Z,96359.91
2022-11-21T11:06:06.071Z,96351.88
2022-11-21T11:10:27.533Z,96342.75
2022-11-21T11:14:33.418Z,96347.16
2022-11-21T11:18:40.040Z,96348.72
2022-11-21T11:22:42.814Z,96345.81
2022-11-21T11:26:54.239Z,96347.22
2022-11-21T11:30:59.075Z,96346.31
2022-11-21T11:35:08.156Z,96346.72
2022-11-21T11:39:19.630Z,96338.22
2022-11-21T11:43:53.623Z,96334.13
2022-11-21T11:48:00.239Z,96328.78
2022-11-21T11:52:06.622Z,96307.59
2022-11-21T11:56:14.475Z,96314.88
2022-11-21T12:00:40.689Z,96312.22
2022-11-21T12:04:49.884Z,96310.38
2022-11-21T12:08:55.177Z,96299.63
2022-11-21T12:13:13.033Z,96302.50
2022-11-21T12:17:22.652Z,96297.75
2022-11-21T12:21:25.930Z,96296.28
2022-11-21T12:25:31.747Z,96290.13
2022-11-21T12:29:49.889Z,96302.97
2022-11-21T12:34:04.985Z,96298.84
2022-11-21T12:38:21.942Z,96291.88
2022-11-21T12:42:47.258Z,96289.88
2022-11-21T12:46:57.688Z,96290.78
2022-11-21T12:51:34.384Z,96298.63
2022-11-21T12:55:39.105Z,96290.38
2022-11-21T13:00:04.312Z,96276.78
2022-11-21T13:04:15.098Z,96257.63
2022-11-21T13:08:24.992Z,96260.19
2022-11-21T13:12:37.683Z,96247.97
2022-11-21T13:16:48.162Z,96233.44
2022-11-21T13:20:52.260Z,96228.34
2022-11-21T13:24:59.901Z,96219.69
2022-11-21T13:29:09.851Z,96216.00
2022-11-21T13:33:48.775Z,96219.78
2022-11-21T13:38:02.770Z,96210.31
2022-11-21T13:42:40.240Z,96208.75
2022-11-21T13:47:03.212Z,96196.94
2022-11-21T13:51:28.855Z,96203.06
2022-11-21T13:55:51.029Z,96193.41
2022-11-21T14:00:30.214Z,96192.25
2022-11-21T14:04:51.235Z,96174.72
2022-11-21T14:09:24.623Z,96178.19
2022-11-21T14:13:29.779Z,96190.88
2022-11-21T14:17:47.131Z,96184.47
2022-11-21T14:21:51.130Z,96180.53
2022-11-21T14:26:00.926Z,96168.28
2022-11-21T14:30:03.702Z,96167.69
2022-11-21T14:34:10.617Z,96164.41
2022-11-21T14:38:17.179Z,96152.03
2022-11-21T14:42:21.686Z,96160.03
2022-11-21T14:46:26.484Z,96170.34
2022-11-21T14:50:34.458Z,96171.50
2022-11-21T14:55:06.407Z,96168.88
2022-11-21T14:59:16.685Z,96150.19
2022-11-21T15:03:21.784Z,96158.75
2022-11-21T15:07:31.837Z,96159.34
2022-11-21T15:11:40.996Z,96148.22
2022-11-21T15:15:47.641Z,96147.53
2022-11-21T15:20:11.193Z,96137.44
2022-11-21T15:24:28.718Z,96121.16
2022-11-21T15:28:32.421Z,96113.03
2022-11-21T15:32:35.101Z,96105.72
2022-11-21T15:36:37.792Z,96096.28
2022-11-21T15:40:45.622Z,96091.25
2022-11-21T15:44:59.444Z,96073.81
2022-11-21T15:49:24.986Z,96072.66
2022-11-21T15:53:25.461Z,96049.28
2022-11-21T15:57:30.014Z,96045.81
2022-11-21T16:01:32.955Z,96048.91
2022-11-21T16:05:35.877Z,96050.19
2022-11-21T16:09:38.812Z,96031.50
2022-11-21T16:13:42.819Z,96040.94
2022-11-21T16:17:45.997Z,96061.94
2022-11-21T16:21:50.104Z,96057.81
2022-11-21T16:25:56.456Z,96050.63
2022-11-21T16:30:00.617Z,96037.03
2022-11-21T16:34:03.419Z,96026.47
2022-11-21T16:38:10.254Z,96025.19
2022-11-21T16:42:12.989Z,96030.63
2022-11-21T16:46:17.791Z,96031.16
2022-11-21T16:50:22.102Z,96007.22
2022-11-21T16:54:25.746Z,96011.75
2022-11-21T16:58:28.642Z,96014.81
2022-11-21T17:02:32.759Z,96013.97
2022-11-21T17:06:35.648Z,96010.88
2022-11-21T17:10:41.093Z,95996.66
2022-11-21T17:14:43.788Z,96013.09
2022-11-21T17:18:48.696Z,96001.34
2022-11-21T17:22:51.362Z,95992.31
2022-11-21T17:26:54.059Z,95983.28
2022-11-21T17:30:56.877Z,95975.47
2022-11-21T17:35:00.886Z,95974.41
2022-11-21T17:39:03.747Z,95972.94
2022-11-21T17:43:06.665Z,95966.44
2022-11-21T17:47:09.367Z,95963.56
2022-11-21T17:51:15.398Z,95952.41
2022-11-21T17:55:18.311Z,95951.16
2022-11-21T17:59:21.037Z,95934.28
2022-11-21T18:03:23.762Z,95925.88
2022-11-21T18:07:29.852Z,95914.31
2022-11-21T18:11:39.603Z,95904.66
2022-11-21T18:15:43.037Z,95902.16
2022-11-21T18:19:45.776Z,95896.41
2022-11-21T18:23:53.686Z,95896.97
2022-11-21T18:27:57.071Z,95897.31
2022-11-21T18:31:59.765Z,95907.16
2022-11-21T18:36:02.910Z,95899.78
2022-11-21T18:40:08.204Z,95887.69
2022-11-21T18:44:21.388Z,95889.13
2022-11-21T18:48:24.570Z,95896.69
2022-11-21T18:52:27.482Z,95874.72
2022-11-21T18:56:36.976Z,95868.97
2022-11-21T19:00:39.746Z,95861.78
2022-11-21T19:04:42.643Z,95861.59
2022-11-21T19:08:46.172Z,95849.69
2022-11-21T19:12:53.879Z,95849.41
2022-11-21T19:16:56.607Z,95850.19
2022-11-21T19:21:02.045Z,95843.41
2022-11-21T19:25:05.094Z,95844.81
2022-11-21T19:29:17.440Z,95824.28
2022-11-21T19:33:20.225Z,95826.50
2022-11-21T19:37:22.900Z,95816.63
2022-11-21T19:41:26.810Z,95823.22
2022-11-21T19:45:34.044Z,95811.94
2022-11-21T19:49:36.853Z,95826.88
2022-11-21T19:53:40.254Z,95807.44
2022-11-21T19:57:42.931Z,95800.06
2022-11-21T20:01:52.172Z,95796.16
2022-11-21T20:06:02.403Z,95780.53
2022-11-21T20:10:05.906Z,95778.94
2022-11-21T20:14:09.070Z,95770.78
2022-11-21T20:18:13.582Z,95760.31
2022-11-21T20:22:16.277Z,95753.75
2022-11-21T20:26:20.598Z,95734.69
2022-11-21T20:30:25.095Z,95721.41
2022-11-21T20:34:29.479Z,95724.50
2022-11-21T20:38:32.580Z,95705.44
2022-11-21T20:42:37.282Z,95707.53
2022-11-21T20:46:40.152Z,95711.56
2022-11-21T20:51:51.008Z,95706.47
2022-11-21T20:55:14.662Z,95698.50
2022-11-21T20:59:17.463Z,95698.69
2022-11-21T21:03:20.162Z,95699.06
2022-11-21T21:07:24.333Z,95705.63
2022-11-21T21:15:49.868Z,95686.72
2022-11-21T21:19:52.526Z,95694.72
2022-11-21T21:23:58.658Z,95673.03
2022-11-21T21:28:01.341Z,95669.16
2022-11-21T21:32:04.309Z,95657.47
2022-11-21T21:36:08.637Z,95649.94
2022-11-21T21:40:13.522Z,95641.38
2022-11-21T21:44:16.943Z,95673.94
2022-11-21T21:48:19.769Z,95666.81
2022-11-21T21:52:22.482Z,95660.88
2022-11-21T21:56:28.377Z,95663.97
2022-11-21T22:00:31.046Z,95671.16
2022-11-21T22:04:33.928Z,95663.78
2022-11-21T22:08:37.951Z,95656.41
2022-11-21T22:12:44.174Z,95655.19
2022-11-21T22:16:47.098Z,95671.97
2022-11-21T22:20:49.808Z,95664.84
2022-11-21T22:24:52.522Z,95665.84
2022-11-21T22:28:56.576Z,95659.50
2022-11-21T22:32:59.282Z,95637.56
2022-11-21T22:37:01.995Z,95639.59
2022-11-21T22:41:06.341Z,95645.97
2022-11-21T22:45:11.673Z,95626.94
2022-11-21T22:49:17.257Z,95630.44
2022-11-21T22:53:21.442Z,95609.75
2022-11-21T22:57:46.505Z,95617.13
2022-11-21T23:01:54.448Z,95626.34
2022-11-21T23:06:05.400Z,95622.88
2022-11-21T23:10:14.795Z,95625.72
2022-11-21T23:14:18.188Z,95615.69
2022-11-21T23:18:22.655Z,95607.09
2022-11-21T23:22:25.893Z,95611.22
2022-11-21T23:26:29.286Z,95608.53
2022-11-21T23:30:32.905Z,95604.66
2022-11-21T23:34:37.426Z,95595.84
2022-11-21T23:38:40.172Z,95591.53
2022-11-21T23:42:42.996Z,95592.34
2022-11-21T23:46:45.743Z,95599.13
2022-11-21T23:50:51.001Z,95606.06
2022-11-21T23:54:53.674Z,95600.56
2022-11-21T23:58:56.350Z,95592.16
